Time;durP1;ratioP1;P1;durP2;ratioP2;P2;SDS_P1;SDS_P2;PMS_P1;PMS_P2;Temp;Humidity;BMP_temperature;BMP_pressure;BME280_temperature;BME280_humidity;BME280_pressure;Samples;Min_cycle;Max_cycle;Signal;HPM_P1;HPM_P2
2022/11/06 00:00:23;;;;;;;;;;;;;;;10.04;98.75;101355.81;4986349;28;19989;-74
2022/11/06 00:02:48;;;;;;;;;;;;;;;10.04;99.06;101351.44;4987451;28;19922;-75
2022/11/06 00:07:57;;;;;;;;;;;;;;;10.05;99.24;101341.81;4982139;28;20204;-74
2022/11/06 00:10:22;;;;;;;;;;;;;;;10.06;99.22;101333.94;4992787;28;19918;-74
2022/11/06 00:12:48;;;;;;;;;;;;;;;10.07;99.02;101314.69;4972906;28;19917;-74
2022/11/06 00:15:13;;;;;;;;;;;;;;;10.09;99.00;101325.97;4998438;28;20000;-74
2022/11/06 00:17:38;;;;;;;;;;;;;;;10.09;99.16;101318.13;4991791;28;19914;-76
2022/11/06 00:20:05;;;;;;;;;;;;;;;10.09;99.22;101325.97;4999857;28;20209;-74
2022/11/06 00:22:33;;;;;;;;;;;;;;;10.11;99.26;101312.84;5000418;28;20288;-74
2022/11/06 00:24:58;;;;;;;;;;;;;;;10.11;99.17;101328.53;4999749;28;19917;-74
2022/11/06 00:27:24;;;;;;;;;;;;;;;10.10;98.98;101335.53;4999552;28;19913;-74
2022/11/06 00:29:49;;;;;;;;;;;;;;;10.09;98.97;101325.97;5014841;28;19925;-74
2022/11/06 00:32:14;;;;;;;;;;;;;;;10.08;99.18;101318.19;5015340;28;19912;-74
2022/11/06 00:34:39;;;;;;;;;;;;;;;10.08;98.90;101320.81;4965845;28;20184;-74
2022/11/06 00:37:05;;;;;;;;;;;;;;;10.09;99.25;101328.59;4979798;28;19928;-74
2022/11/06 00:39:30;;;;;;;;;;;;;;;10.08;99.50;101320.81;4981724;28;19931;-74
2022/11/06 00:41:55;;;;;;;;;;;;;;;10.10;99.45;101322.47;4997295;28;19924;-74
2022/11/06 00:44:20;;;;;;;;;;;;;;;10.10;99.36;101327.69;4998584;28;20008;-74
2022/11/06 00:46:45;;;;;;;;;;;;;;;10.10;99.11;101319.00;4999145;28;19922;-74
2022/11/06 00:49:11;;;;;;;;;;;;;;;10.11;99.18;101310.22;5000010;28;19960;-74
2022/11/06 00:51:38;;;;;;;;;;;;;;;10.11;99.39;101316.31;4999408;28;19918;-74
2022/11/06 00:54:05;;;;;;;;;;;;;;;10.11;99.02;101323.31;4982146;28;19917;-74
2022/11/06 00:56:30;;;;;;;;;;;;;;;10.11;98.96;101323.31;4999539;28;19940;-74
2022/11/06 00:58:59;;;;;;;;;;;;;;;10.11;99.56;101336.38;4998537;28;20221;-74
2022/11/06 01:01:26;;;;;;;;;;;;;;;10.09;99.58;101320.72;4999031;28;19918;-74
2022/11/06 01:03:56;;;;;;;;;;;;;;;10.09;99.49;101322.50;4998976;28;20216;-74
2022/11/06 01:06:22;;;;;;;;;;;;;;;10.09;100.00;101320.72;4978370;28;19917;-74
2022/11/06 01:08:48;;;;;;;;;;;;;;;10.10;99.93;101316.38;4997324;28;20159;-74
2022/11/06 01:11:18;;;;;;;;;;;;;;;10.09;100.00;101325.97;4982296;28;19918;-74
2022/11/06 01:13:44;;;;;;;;;;;;;;;10.11;100.00;101325.94;4997126;28;20196;-74
2022/11/06 01:16:11;;;;;;;;;;;;;;;10.12;100.00;101322.41;4999436;28;19918;-74
2022/11/06 01:18:37;;;;;;;;;;;;;;;10.13;100.00;101317.13;4981072;28;19922;-74
2022/11/06 01:21:06;;;;;;;;;;;;;;;10.12;100.00;101315.41;4981754;28;19913;-74
2022/11/06 01:23:31;;;;;;;;;;;;;;;10.13;100.00;101306.66;4998979;28;19937;-74
2022/11/06 01:26:01;;;;;;;;;;;;;;;10.13;100.00;101288.34;4997568;28;19917;-74
2022/11/06 01:28:27;;;;;;;;;;;;;;;10.14;100.00;101290.03;4998460;28;19916;-74
2022/11/06 01:30:52;;;;;;;;;;;;;;;10.14;100.00;101290.03;4997464;28;20220;-75
2022/11/06 01:33:17;;;;;;;;;;;;;;;10.16;100.00;101296.09;4999126;28;20078;-74
2022/11/06 01:35:46;;;;;;;;;;;;;;;10.17;100.00;101296.97;4998537;28;19906;-75
2022/11/06 01:38:12;;;;;;;;;;;;;;;10.16;100.00;101296.09;4998071;28;19925;-74
2022/11/06 01:40:41;;;;;;;;;;;;;;;10.16;100.00;101297.84;4980856;28;20172;-75
2022/11/06 01:43:15;;;;;;;;;;;;;;;10.16;100.00;101300.47;4998920;28;19917;-74
2022/11/06 01:45:42;;;;;;;;;;;;;;;10.16;100.00;101290.84;4998158;28;19909;-74
2022/11/06 01:48:08;;;;;;;;;;;;;;;10.17;100.00;101295.19;4981172;28;19918;-74
2022/11/06 01:50:33;;;;;;;;;;;;;;;10.16;100.00;101288.22;4997236;28;19960;-74
2022/11/06 01:53:01;;;;;;;;;;;;;;;10.16;100.00;101285.63;4980715;28;19918;-74
2022/11/06 01:55:31;;;;;;;;;;;;;;;10.18;100.00;101290.81;4998113;28;20028;-74
2022/11/06 01:57:58;;;;;;;;;;;;;;;10.18;100.00;101293.41;4997812;28;19913;-74
2022/11/06 02:03:27;;;;;;;;;;;;;;;10.19;100.00;101290.75;5009795;28;19985;-74
2022/11/06 02:05:52;;;;;;;;;;;;;;;10.20;100.00;101291.59;4999459;28;19934;-74
2022/11/06 02:08:19;;;;;;;;;;;;;;;10.20;100.00;101286.38;4981689;28;19924;-74
2022/11/06 02:10:45;;;;;;;;;;;;;;;10.21;100.00;101284.63;4997877;28;19984;-74
2022/11/06 02:13:31;;;;;;;;;;;;;;;10.22;100.00;101278.47;4997820;28;20198;-74
2022/11/06 02:16:11;;;;;;;;;;;;;;;10.21;100.00;101275.00;4997476;28;20425;-74
2022/11/06 02:18:36;;;;;;;;;;;;;;;10.19;100.00;101276.81;4996751;28;19921;-74
2022/11/06 02:21:16;;;;;;;;;;;;;;;10.19;100.00;101261.97;4996876;28;19924;-75
2022/11/06 02:23:42;;;;;;;;;;;;;;;10.19;100.00;101268.97;4998221;28;20262;-74
2022/11/06 02:26:19;;;;;;;;;;;;;;;10.18;100.00;101264.63;4997692;28;20315;-75
2022/11/06 02:28:54;;;;;;;;;;;;;;;10.19;100.00;101272.44;4997460;28;20220;-74
2022/11/06 02:31:23;;;;;;;;;;;;;;;10.21;100.00;101271.56;4980064;28;19909;-75
2022/11/06 02:33:54;;;;;;;;;;;;;;;10.21;100.00;101255.84;4997644;28;19948;-74
2022/11/06 02:36:22;;;;;;;;;;;;;;;10.21;100.00;101261.94;4997463;28;19922;-74
2022/11/06 02:38:54;;;;;;;;;;;;;;;10.21;100.00;101266.31;4997622;28;19920;-74
2022/11/06 02:41:24;;;;;;;;;;;;;;;10.23;100.00;101259.25;4978943;28;19918;-74
2022/11/06 02:43:52;;;;;;;;;;;;;;;10.23;100.00;101251.41;4997277;28;19921;-74
2022/11/06 02:46:21;;;;;;;;;;;;;;;10.22;100.00;101253.16;4997344;28;19913;-74
2022/11/06 02:48:50;;;;;;;;;;;;;;;10.23;100.00;101238.31;4997599;28;19980;-74
2022/11/06 02:51:17;;;;;;;;;;;;;;;10.23;100.00;101238.31;4997331;28;20207;-75
2022/11/06 02:53:44;;;;;;;;;;;;;;;10.23;100.00;101246.19;4997100;28;20243;-74
2022/11/06 02:56:19;;;;;;;;;;;;;;;10.23;100.00;101240.94;4997460;28;19976;-74
2022/11/06 02:59:13;;;;;;;;;;;;;;;10.23;100.00;101238.31;4996928;28;20161;-74
2022/11/06 03:01:41;;;;;;;;;;;;;;;10.22;100.00;101240.06;4979667;28;19905;-74
2022/11/06 03:04:10;;;;;;;;;;;;;;;10.22;100.00;101249.69;4997755;28;19925;-75
2022/11/06 03:06:47;;;;;;;;;;;;;;;10.21;100.00;101248.00;4997669;28;19912;-75
2022/11/06 03:09:18;;;;;;;;;;;;;;;10.22;100.00;101236.59;4978965;28;19924;-74
2022/11/06 03:11:44;;;;;;;;;;;;;;;10.23;100.00;101235.69;4979052;28;19925;-74
2022/11/06 03:14:15;;;;;;;;;;;;;;;10.24;100.00;101230.41;4993541;28;20283;-74
2022/11/06 03:17:04;;;;;;;;;;;;;;;10.25;100.00;101226.03;4981408;28;19918;-74
2022/11/06 03:19:35;;;;;;;;;;;;;;;10.24;100.00;101219.06;4997470;28;19964;-74
2022/11/06 03:22:04;;;;;;;;;;;;;;;10.26;100.00;101235.56;4997225;28;19917;-75
2022/11/06 03:24:38;;;;;;;;;;;;;;;10.25;100.00;101216.41;4980479;28;20124;-75
2022/11/06 03:27:11;;;;;;;;;;;;;;;10.27;100.00;101232.06;5001110;28;19922;-75
2022/11/06 03:29:42;;;;;;;;;;;;;;;10.26;100.00;101228.59;4999694;28;20215;-75
2022/11/06 03:32:19;;;;;;;;;;;;;;;10.28;100.00;101223.31;5000360;28;19914;-75
2022/11/06 03:34:50;;;;;;;;;;;;;;;10.28;100.00;101228.56;5000926;28;19914;-75
2022/11/06 03:37:18;;;;;;;;;;;;;;;10.28;100.00;101220.72;5001586;28;20374;-75
2022/11/06 03:39:49;;;;;;;;;;;;;;;10.27;100.00;101203.28;4999875;28;20108;-75
2022/11/06 03:42:17;;;;;;;;;;;;;;;10.28;100.00;101205.00;4983667;28;20197;-75
2022/11/06 03:44:44;;;;;;;;;;;;;;;10.27;100.00;101201.50;4983005;28;19964;-75
2022/11/06 03:47:19;;;;;;;;;;;;;;;10.27;100.00;101204.13;4982786;28;19936;-75
2022/11/06 03:49:48;;;;;;;;;;;;;;;10.28;100.00;101207.63;5000395;28;19914;-75
2022/11/06 03:52:21;;;;;;;;;;;;;;;10.28;100.00;101197.16;4983607;28;19936;-75
2022/11/06 03:55:06;;;;;;;;;;;;;;;10.29;100.00;101183.13;4983009;28;19945;-75
2022/11/06 03:57:37;;;;;;;;;;;;;;;10.29;100.00;101180.50;5000561;28;20127;-75
2022/11/06 04:00:05;;;;;;;;;;;;;;;10.29;100.00;101175.28;5000660;28;19968;-73
2022/11/06 04:02:31;;;;;;;;;;;;;;;10.30;100.00;101179.63;5001150;28;19906;-73
2022/11/06 04:04:59;;;;;;;;;;;;;;;10.30;100.00;101175.22;5000277;28;19941;-73
2022/11/06 04:07:31;;;;;;;;;;;;;;;10.30;100.00;101171.78;5000894;28;19920;-73
2022/11/06 04:15:30;;;;;;;;;;;;;;;10.30;100.00;101163.91;5000887;28;20108;-73
2022/11/06 04:17:55;;;;;;;;;;;;;;;10.31;100.00;101165.63;5000505;28;19976;-72
2022/11/06 04:23:31;;;;;;;;;;;;;;;10.32;100.00;101162.13;5000374;28;19940;-73
2022/11/06 04:28:56;;;;;;;;;;;;;;;10.31;100.00;101150.78;4980762;28;19929;-73
2022/11/06 04:31:31;;;;;;;;;;;;;;;10.32;100.00;101159.50;4980727;28;19910;-73
2022/11/06 04:34:15;;;;;;;;;;;;;;;10.32;100.00;101146.41;4980708;28;19960;-73
2022/11/06 04:36:44;;;;;;;;;;;;;;;10.33;100.00;101153.34;4979330;28;19916;-73
2022/11/06 04:39:12;;;;;;;;;;;;;;;10.33;100.00;101143.75;4980689;28;19977;-73
2022/11/06 04:41:44;;;;;;;;;;;;;;;10.34;100.00;101147.22;4980382;28;19945;-74
2022/11/06 04:44:15;;;;;;;;;;;;;;;10.33;100.00;101130.66;4962702;28;19925;-73
2022/11/06 04:46:48;;;;;;;;;;;;;;;10.34;100.00;101144.59;4979327;28;19949;-73
2022/11/06 04:49:14;;;;;;;;;;;;;;;10.34;100.00;101136.75;4962946;28;20225;-73
2022/11/06 04:51:39;;;;;;;;;;;;;;;10.34;100.00;101144.59;4978825;28;19984;-73
2022/11/06 04:54:05;;;;;;;;;;;;;;;10.32;100.00;101139.41;4980491;28;20162;-73
2022/11/06 04:56:33;;;;;;;;;;;;;;;10.33;100.00;101137.63;4980386;28;19928;-73
2022/11/06 04:58:58;;;;;;;;;;;;;;;10.32;100.00;101138.56;4979919;28;20113;-73
2022/11/06 05:01:23;;;;;;;;;;;;;;;10.34;100.00;101131.50;4978885;28;19961;-73
2022/11/06 05:03:48;;;;;;;;;;;;;;;10.35;100.00;101125.34;4962505;28;19922;-73
2022/11/06 05:06:14;;;;;;;;;;;;;;;10.34;100.00;101126.28;4979792;28;19918;-73
2022/11/06 05:08:39;;;;;;;;;;;;;;;10.35;100.00;101118.38;4979847;28;19914;-73
2022/11/06 05:11:04;;;;;;;;;;;;;;;10.35;100.00;101125.34;4946074;28;20013;-73
2022/11/06 05:13:30;;;;;;;;;;;;;;;10.35;100.00;101115.75;4962770;28;19918;-73
2022/11/06 05:15:56;;;;;;;;;;;;;;;10.36;100.00;101130.53;4980023;28;20550;-73
2022/11/06 05:18:22;;;;;;;;;;;;;;;10.37;100.00;101115.72;4978620;28;20088;-73
2022/11/06 05:20:47;;;;;;;;;;;;;;;10.38;100.00;101114.78;4979621;28;19923;-73
2022/11/06 05:23:12;;;;;;;;;;;;;;;10.37;100.00;101103.47;4962332;28;20009;-73
2022/11/06 05:25:39;;;;;;;;;;;;;;;10.37;100.00;101097.38;4979439;28;20334;-73
2022/11/06 05:28:05;;;;;;;;;;;;;;;10.36;100.00;101088.66;4994768;28;20236;-73
2022/11/06 05:30:31;;;;;;;;;;;;;;;10.37;100.00;101089.53;4998962;28;19909;-73
2022/11/06 05:32:56;;;;;;;;;;;;;;;10.37;100.00;101090.38;4998629;28;19991;-73
2022/11/06 05:35:22;;;;;;;;;;;;;;;10.38;100.00;101088.59;4999040;28;20086;-72
2022/11/06 05:37:47;;;;;;;;;;;;;;;10.38;100.00;101084.19;4997389;28;19921;-72
2022/11/06 05:40:12;;;;;;;;;;;;;;;10.38;100.00;101080.75;4999379;28;19922;-72
2022/11/06 05:42:38;;;;;;;;;;;;;;;10.38;100.00;101084.19;4998860;28;19922;-73
2022/11/06 05:45:07;;;;;;;;;;;;;;;10.38;100.00;101081.59;4999015;28;19925;-73
2022/11/06 05:47:32;;;;;;;;;;;;;;;10.38;100.00;101080.75;4980628;28;19935;-73
2022/11/06 05:49:57;;;;;;;;;;;;;;;10.39;100.00;101077.22;4998999;28;19948;-73
2022/11/06 05:52:23;;;;;;;;;;;;;;;10.39;100.00;101072.00;4998573;28;20276;-73
2022/11/06 05:54:48;;;;;;;;;;;;;;;10.40;100.00;101067.59;4998372;28;20192;-73
2022/11/06 05:57:13;;;;;;;;;;;;;;;10.38;100.00;101070.28;4998511;28;19917;-73
2022/11/06 05:59:38;;;;;;;;;;;;;;;10.38;100.00;101059.78;4997169;28;19980;-72
2022/11/06 06:02:04;;;;;;;;;;;;;;;10.40;100.00;101062.38;5001805;28;20237;-73
2022/11/06 06:04:29;;;;;;;;;;;;;;;10.40;100.00;101063.22;4998612;28;20227;-72
2022/11/06 06:06:54;;;;;;;;;;;;;;;10.40;100.00;101063.22;5009950;28;19921;-72
2022/11/06 06:09:19;;;;;;;;;;;;;;;10.40;100.00;101063.22;4969844;28;19922;-72
2022/11/06 06:11:45;;;;;;;;;;;;;;;10.40;100.00;101054.50;4996389;28;19980;-72
2022/11/06 06:14:10;;;;;;;;;;;;;;;10.41;100.00;101066.72;4998249;28;19920;-73
2022/11/06 06:16:35;;;;;;;;;;;;;;;10.41;100.00;101070.16;4981004;28;20158;-73
2022/11/06 06:19:00;;;;;;;;;;;;;;;10.41;100.00;101057.06;4996728;28;20009;-73
2022/11/06 06:21:26;;;;;;;;;;;;;;;10.40;100.00;101051.88;4998072;28;19906;-73
2022/11/06 06:23:51;;;;;;;;;;;;;;;10.38;100.00;101050.16;4996840;28;20341;-73
2022/11/06 06:26:16;;;;;;;;;;;;;;;10.37;100.00;101063.34;4995417;28;19917;-72
2022/11/06 06:28:42;;;;;;;;;;;;;;;10.37;100.00;101051.09;4977057;28;19914;-73
2022/11/06 06:31:08;;;;;;;;;;;;;;;10.38;100.00;101059.78;4978430;28;19973;-72
2022/11/06 06:33:34;;;;;;;;;;;;;;;10.38;100.00;101057.19;4990907;28;19924;-73
2022/11/06 06:36:02;;;;;;;;;;;;;;;10.38;100.00;101049.31;4996377;28;20120;-73
2022/11/06 06:38:27;;;;;;;;;;;;;;;10.39;100.00;101040.56;4979649;28;19934;-73
2022/11/06 06:40:53;;;;;;;;;;;;;;;10.41;100.00;101040.53;4980454;28;20017;-73
2022/11/06 06:43:18;;;;;;;;;;;;;;;10.41;100.00;101033.50;4997557;28;19959;-73
2022/11/06 06:45:43;;;;;;;;;;;;;;;10.41;100.00;101036.13;4996664;28;20221;-73
2022/11/06 06:48:08;;;;;;;;;;;;;;;10.40;100.00;101026.56;4997209;28;19951;-73
2022/11/06 06:50:34;;;;;;;;;;;;;;;10.40;100.00;101026.56;4995866;28;19921;-73
2022/11/06 06:52:59;;;;;;;;;;;;;;;10.41;100.00;101028.28;4995518;28;19918;-73
2022/11/06 06:55:25;;;;;;;;;;;;;;;10.41;100.00;101025.66;4981077;28;19906;-73
2022/11/06 06:57:59;;;;;;;;;;;;;;;10.41;100.00;101019.56;4977542;28;19914;-73
2022/11/06 07:00:25;;;;;;;;;;;;;;;10.41;100.00;101022.19;4960418;28;19906;-72
2022/11/06 07:02:51;;;;;;;;;;;;;;;10.41;100.00;101017.81;4978100;28;20217;-72
2022/11/06 07:05:16;;;;;;;;;;;;;;;10.42;100.00;101013.41;4978673;28;20160;-73
2022/11/06 07:07:42;;;;;;;;;;;;;;;10.42;100.00;101011.63;4960878;28;20208;-72
2022/11/06 07:10:07;;;;;;;;;;;;;;;10.42;100.00;101016.03;4977906;28;20206;-73
2022/11/06 07:12:32;;;;;;;;;;;;;;;10.41;100.00;101007.34;4978875;28;20464;-72
2022/11/06 07:14:57;;;;;;;;;;;;;;;10.42;100.00;101008.19;4977932;28;19918;-73
2022/11/06 07:17:23;;;;;;;;;;;;;;;10.43;100.00;101009.91;4976824;28;19918;-73
2022/11/06 07:19:48;;;;;;;;;;;;;;;10.44;100.00;101011.59;4977961;28;20009;-72
2022/11/06 07:22:13;;;;;;;;;;;;;;;10.43;100.00;101010.75;4977716;28;19929;-72
2022/11/06 07:24:38;;;;;;;;;;;;;;;10.44;100.00;101016.81;4993073;28;20213;-73
2022/11/06 07:27:04;;;;;;;;;;;;;;;10.43;100.00;101012.50;4978027;28;19953;-72
2022/11/06 07:29:29;;;;;;;;;;;;;;;10.43;100.00;101015.97;4993261;28;20213;-72
2022/11/06 07:31:54;;;;;;;;;;;;;;;10.44;100.00;101011.59;4977041;28;19961;-73
2022/11/06 07:34:20;;;;;;;;;;;;;;;10.44;100.00;100999.38;4978345;28;20256;-73
2022/11/06 07:36:45;;;;;;;;;;;;;;;10.46;100.00;101001.91;4977894;28;20197;-72
2022/11/06 07:39:11;;;;;;;;;;;;;;;10.46;100.00;100994.06;4976901;28;19948;-72
2022/11/06 07:41:36;;;;;;;;;;;;;;;10.46;100.00;100992.31;4978147;28;19906;-72
2022/11/06 07:44:02;;;;;;;;;;;;;;;10.46;100.00;100983.56;4960962;28;19921;-73
2022/11/06 07:46:27;;;;;;;;;;;;;;;10.46;100.00;100989.69;4978275;28;19918;-72
2022/11/06 07:48:53;;;;;;;;;;;;;;;10.48;100.00;100990.47;4977028;28;19941;-72
2022/11/06 07:51:18;;;;;;;;;;;;;;;10.48;100.00;100992.25;4976602;28;19988;-72
2022/11/06 07:53:44;;;;;;;;;;;;;;;10.48;100.00;101006.19;4977553;28;19969;-72
2022/11/06 07:56:09;;;;;;;;;;;;;;;10.48;100.00;101003.56;4978006;28;20152;-72
2022/11/06 07:58:34;;;;;;;;;;;;;;;10.47;100.00;100998.38;4978027;28;20082;-72
2022/11/06 08:00:59;;;;;;;;;;;;;;;10.48;100.00;101002.72;4976424;28;19964;-72
2022/11/06 08:03:25;;;;;;;;;;;;;;;10.47;100.00;100995.78;4976746;28;19913;-72
2022/11/06 08:05:50;;;;;;;;;;;;;;;10.46;100.00;101009.75;4960306;28;20128;-72
2022/11/06 08:08:16;;;;;;;;;;;;;;;10.46;100.00;101008.03;4978346;28;20213;-72
2022/11/06 08:10:46;;;;;;;;;;;;;;;10.46;100.00;100994.94;4978303;28;19914;-73
2022/11/06 08:13:13;;;;;;;;;;;;;;;10.47;100.00;100991.38;4981662;28;20226;-72
2022/11/06 08:15:39;;;;;;;;;;;;;;;10.48;100.00;100982.63;4963491;28;19960;-73
2022/11/06 08:18:08;;;;;;;;;;;;;;;10.47;100.00;100986.16;4992973;28;19956;-72
2022/11/06 08:20:34;;;;;;;;;;;;;;;10.49;100.00;100992.16;4981443;28;20180;-73
2022/11/06 08:23:01;;;;;;;;;;;;;;;10.49;100.00;100994.78;4995731;28;19926;-73
2022/11/06 08:25:26;;;;;;;;;;;;;;;10.51;100.00;100997.34;4963835;28;19906;-72
2022/11/06 08:27:58;;;;;;;;;;;;;;;10.50;100.00;100988.66;4980406;28;19985;-73
2022/11/06 08:30:24;;;;;;;;;;;;;;;10.52;100.00;100978.13;4980584;28;20421;-72
2022/11/06 08:32:49;;;;;;;;;;;;;;;10.50;100.00;100980.81;4986806;28;19933;-72
2022/11/06 08:35:15;;;;;;;;;;;;;;;10.52;100.00;100975.50;4978318;28;19933;-72
2022/11/06 08:37:40;;;;;;;;;;;;;;;10.52;100.00;100975.50;4981428;28;19952;-73
2022/11/06 08:40:06;;;;;;;;;;;;;;;10.52;100.00;100968.50;4985667;28;19914;-73
2022/11/06 08:42:31;;;;;;;;;;;;;;;10.52;100.00;100958.03;4982242;28;19948;-73
2022/11/06 08:44:56;;;;;;;;;;;;;;;10.52;100.00;100965.03;4986490;28;19965;-72
2022/11/06 08:47:22;;;;;;;;;;;;;;;10.53;100.00;100951.88;4988276;28;20128;-72
2022/11/06 08:49:47;;;;;;;;;;;;;;;10.54;100.00;100948.34;4975781;28;20113;-73
2022/11/06 08:52:12;;;;;;;;;;;;;;;10.54;100.00;100943.09;4977470;28;19918;-73
2022/11/06 08:54:37;;;;;;;;;;;;;;;10.56;100.00;100946.50;4978274;28;20231;-73
2022/11/06 08:57:03;;;;;;;;;;;;;;;10.58;100.00;100946.47;4977538;28;19994;-73
2022/11/06 08:59:28;;;;;;;;;;;;;;;10.57;100.00;100950.84;4990330;28;19910;-73
2022/11/06 09:01:55;;;;;;;;;;;;;;;10.59;100.00;100942.06;4985315;28;19949;-73
2022/11/06 09:04:20;;;;;;;;;;;;;;;10.59;100.00;100929.84;4978204;28;19925;-72
2022/11/06 09:06:45;;;;;;;;;;;;;;;10.61;100.00;100935.03;4978756;28;20125;-72
2022/11/06 09:09:11;;;;;;;;;;;;;;;10.62;100.00;100928.84;4979166;28;19925;-72
2022/11/06 09:11:36;;;;;;;;;;;;;;;10.63;100.00;100927.97;4961667;28;19941;-73
2022/11/06 09:14:01;;;;;;;;;;;;;;;10.64;100.00;100924.41;4978630;28;19918;-73
2022/11/06 09:16:27;;;;;;;;;;;;;;;10.65;100.00;100931.38;4979102;28;19918;-72
2022/11/06 09:18:53;;;;;;;;;;;;;;;10.65;100.00;100932.22;4970221;28;19919;-72
2022/11/06 09:21:18;;;;;;;;;;;;;;;10.66;100.00;100927.81;4966259;28;20161;-72
2022/11/06 09:23:44;;;;;;;;;;;;;;;10.67;100.00;100934.78;4973358;28;20161;-72
2022/11/06 09:26:10;;;;;;;;;;;;;;;10.68;100.00;100936.50;4978738;28;20137;-72
2022/11/06 09:28:35;;;;;;;;;;;;;;;10.68;100.00;100926.84;4972041;28;19922;-72
2022/11/06 09:31:01;;;;;;;;;;;;;;;10.68;100.00;100926.00;4968153;28;19925;-73
2022/11/06 09:33:26;;;;;;;;;;;;;;;10.69;100.00;100909.38;4978653;28;19913;-72
2022/11/06 09:35:51;;;;;;;;;;;;;;;10.68;100.00;100919.00;4945813;29;19910;-73
2022/11/06 09:38:18;;;;;;;;;;;;;;;10.69;100.00;100907.59;4960986;28;19925;-72
2022/11/06 09:40:49;;;;;;;;;;;;;;;10.70;100.00;100914.56;4971059;28;19910;-72
2022/11/06 09:43:30;;;;;;;;;;;;;;;10.70;100.00;100911.94;4969815;28;19945;-73
2022/11/06 09:46:00;;;;;;;;;;;;;;;10.70;100.00;100906.69;4978583;28;19941;-72
2022/11/06 09:48:29;;;;;;;;;;;;;;;10.72;100.00;100901.41;4979223;28;19921;-73
2022/11/06 09:51:10;;;;;;;;;;;;;;;10.72;100.00;100891.75;4953685;28;19910;-72
2022/11/06 09:53:40;;;;;;;;;;;;;;;10.74;100.00;100889.09;4978372;28;19910;-72
2022/11/06 09:56:09;;;;;;;;;;;;;;;10.74;100.00;100891.69;4977695;28;19922;-72
2022/11/06 09:58:37;;;;;;;;;;;;;;;10.75;100.00;100881.16;4978464;28;19929;-72
2022/11/06 10:01:21;;;;;;;;;;;;;;;10.76;100.00;100887.25;4977720;28;19945;-72
2022/11/06 10:03:55;;;;;;;;;;;;;;;10.78;100.00;100893.28;4978596;28;20099;-72
2022/11/06 10:06:21;;;;;;;;;;;;;;;10.79;100.00;100894.13;4959230;28;20149;-72
2022/11/06 10:08:47;;;;;;;;;;;;;;;10.79;100.00;100897.63;4960888;28;19949;-72
2022/11/06 10:11:15;;;;;;;;;;;;;;;10.80;100.00;100891.44;4979018;28;19906;-72
2022/11/06 10:13:40;;;;;;;;;;;;;;;10.82;100.00;100894.00;4977954;28;19948;-72
2022/11/06 10:16:14;;;;;;;;;;;;;;;10.82;100.00;100894.00;4978599;28;20118;-72
2022/11/06 10:18:45;;;;;;;;;;;;;;;10.84;100.00;100886.94;4977081;28;19922;-72
2022/11/06 10:21:24;;;;;;;;;;;;;;;10.84;100.00;100884.31;4976236;28;19909;-72
2022/11/06 10:23:53;;;;;;;;;;;;;;;10.85;100.00;100871.16;4960585;28;19918;-72
2022/11/06 10:26:20;;;;;;;;;;;;;;;10.84;100.00;100874.72;4960744;28;20125;-72
2022/11/06 10:29:04;;;;;;;;;;;;;;;10.87;100.00;100878.97;4996496;28;20225;-72
2022/11/06 10:31:29;;;;;;;;;;;;;;;10.87;100.00;100877.19;4988573;28;20240;-72
2022/11/06 10:34:09;;;;;;;;;;;;;;;10.89;100.00;100871.88;4991612;28;19918;-72
2022/11/06 10:36:43;;;;;;;;;;;;;;;10.88;100.00;100865.78;4994496;28;20088;-72
2022/11/06 10:39:32;;;;;;;;;;;;;;;10.89;100.00;100862.25;4995738;28;20211;-72
2022/11/06 10:41:59;;;;;;;;;;;;;;;10.91;100.00;100857.81;4990002;28;20230;-72
2022/11/06 10:44:27;;;;;;;;;;;;;;;10.90;100.00;100850.84;4994615;28;19917;-72
2022/11/06 10:46:57;;;;;;;;;;;;;;;10.93;100.00;100852.50;4995375;28;19922;-72
2022/11/06 10:49:29;;;;;;;;;;;;;;;10.92;100.00;100846.41;4995872;28;20391;-72
2022/11/06 10:52:03;;;;;;;;;;;;;;;10.93;100.00;100839.38;4994248;28;19917;-72
2022/11/06 10:54:44;;;;;;;;;;;;;;;10.94;100.00;100831.47;4995583;28;19917;-72
2022/11/06 10:57:31;;;;;;;;;;;;;;;10.94;100.00;100828.84;4994724;28;19909;-72
2022/11/06 10:59:56;;;;;;;;;;;;;;;10.95;100.00;100822.69;4995475;28;19953;-72
2022/11/06 11:02:35;;;;;;;;;;;;;;;10.96;100.00;100823.53;4995824;28;20074;-73
2022/11/06 11:05:01;;;;;;;;;;;;;;;10.97;100.00;100824.38;4995468;28;20209;-72
2022/11/06 11:07:31;;;;;;;;;;;;;;;10.94;100.00;100807.88;4995706;28;19929;-72
2022/11/06 11:09:56;;;;;;;;;;;;;;;10.94;100.00;100817.53;4995785;28;20256;-72
2022/11/06 11:12:26;;;;;;;;;;;;;;;10.94;100.00;100820.97;4978655;28;19924;-73
2022/11/06 11:15:12;;;;;;;;;;;;;;;10.95;100.00;100813.97;4995085;28;20156;-73
2022/11/06 11:17:38;;;;;;;;;;;;;;;10.94;100.00;100809.66;5010318;28;20205;-73
2022/11/06 11:20:24;;;;;;;;;;;;;;;10.95;100.00;100817.47;4994672;28;19929;-72
2022/11/06 11:23:03;;;;;;;;;;;;;;;10.96;100.00;100815.69;4989901;28;19917;-72
2022/11/06 11:25:28;;;;;;;;;;;;;;;10.96;100.00;100815.69;4976946;28;19917;-72
2022/11/06 11:27:53;;;;;;;;;;;;;;;10.97;100.00;100806.03;4980687;28;19972;-72
2022/11/06 11:30:20;;;;;;;;;;;;;;;10.95;100.00;100799.13;4994257;28;19917;-73
2022/11/06 11:32:45;;;;;;;;;;;;;;;10.95;100.00;100804.34;4993891;28;19983;-72
2022/11/06 11:35:15;;;;;;;;;;;;;;;10.95;100.00;100793.00;4992582;28;19922;-72
2022/11/06 11:37:40;;;;;;;;;;;;;;;10.95;100.00;100793.00;4994614;28;19921;-72
2022/11/06 11:40:34;;;;;;;;;;;;;;;10.94;100.00;100780.84;4994619;28;19933;-72
2022/11/06 11:43:18;;;;;;;;;;;;;;;10.95;100.00;100772.03;4975286;28;20247;-72
2022/11/06 11:45:59;;;;;;;;;;;;;;;10.95;100.00;100761.56;4991894;28;20012;-72
2022/11/06 11:48:24;;;;;;;;;;;;;;;10.95;100.00;100753.69;4993609;28;19918;-73
2022/11/06 11:50:50;;;;;;;;;;;;;;;10.97;100.00;100743.16;4991306;28;19975;-72
2022/11/06 11:53:20;;;;;;;;;;;;;;;10.98;100.00;100744.88;5007905;28;20038;-72
2022/11/06 11:55:47;;;;;;;;;;;;;;;10.98;100.00;100748.34;4995967;28;19917;-72
2022/11/06 11:58:18;;;;;;;;;;;;;;;10.98;100.00;100732.63;4987404;28;19918;-73
2022/11/06 12:00:51;;;;;;;;;;;;;;;10.98;100.00;100730.00;4994156;28;19967;-72
2022/11/06 12:03:17;;;;;;;;;;;;;;;10.99;100.00;100717.72;4995211;28;20002;-73
2022/11/06 12:05:42;;;;;;;;;;;;;;;11.01;100.00;100718.53;4990429;28;19909;-72
2022/11/06 12:08:22;;;;;;;;;;;;;;;11.01;100.00;100715.94;4996120;28;19953;-72
2022/11/06 12:10:48;;;;;;;;;;;;;;;11.01;100.00;100708.91;4995213;28;20156;-72
2022/11/06 12:13:18;;;;;;;;;;;;;;;11.01;100.00;100697.59;4995655;28;19919;-73
2022/11/06 12:15:44;;;;;;;;;;;;;;;11.02;100.00;100694.88;4990293;28;19921;-73
2022/11/06 12:18:11;;;;;;;;;;;;;;;11.01;100.00;100693.19;4993013;28;19917;-73
2022/11/06 12:20:44;;;;;;;;;;;;;;;11.03;100.00;100688.72;4995183;28;20029;-73
2022/11/06 12:23:29;;;;;;;;;;;;;;;11.02;100.00;100686.16;4993738;28;19918;-73
2022/11/06 12:25:58;;;;;;;;;;;;;;;11.02;100.00;100683.53;4983750;28;19918;-72
2022/11/06 12:28:24;;;;;;;;;;;;;;;11.03;100.00;100683.47;4976180;28;19941;-72
2022/11/06 12:30:54;;;;;;;;;;;;;;;11.03;100.00;100682.63;4991301;28;19917;-73
2022/11/06 12:33:21;;;;;;;;;;;;;;;11.03;100.00;100680.84;4994153;28;19917;-72
2022/11/06 12:35:48;;;;;;;;;;;;;;;11.03;100.00;100686.09;4994370;28;20097;-73
2022/11/06 12:38:29;;;;;;;;;;;;;;;11.03;100.00;100678.22;4990876;28;19917;-72
2022/11/06 12:40:57;;;;;;;;;;;;;;;11.03;100.00;100670.38;4993302;28;20166;-73
2022/11/06 12:43:38;;;;;;;;;;;;;;;11.04;100.00;100671.22;4992115;28;19924;-72
2022/11/06 12:46:15;;;;;;;;;;;;;;;11.03;100.00;100678.22;4992182;28;20011;-72
2022/11/06 12:48:59;;;;;;;;;;;;;;;11.03;100.00;100680.00;4993880;28;19918;-72
2022/11/06 12:51:36;;;;;;;;;;;;;;;11.02;100.00;100675.69;4994858;28;20148;-72